Fayette, New York
Current Conditions -  °F | °C
As of 7:53 PM on Tuesday 21 Oct 2014 (Local Time) from KPEO Reporting Station
Haze Haze  
Wind Chill: 51°   Ceiling: 500
Heat Index: 51°   Visibility: 5mi
Dew Point: 49°   Wind: 3mph
Humidity: 92%   Direction: NA
Pressure: 29.96"   Gusts: NA
Location:  42.81°N, 76.81°W
Report Text: KPEO 212353Z AUTO VRB03KT 5SM BR BKN005 OVC009 11/09 A2996 RMK AO2 RAE36 SLP146 P0000 60017 T01060094 10128 20106 53021
Loading
Personal Weather Stations






























Interactive Weather Map
Tropical Storm Tracking
New forecast layout! Learn more

10-Day Weather Forecast

Advertisements
Track Severe Weather on mobile